createdAt,value
2022-10-29T00:00:54.508Z,17.13
2022-10-29T00:03:22.841Z,16.85
2022-10-29T00:06:00.799Z,17.88
2022-10-29T00:08:29.222Z,13.95
2022-10-29T00:10:56.156Z,16.13
2022-10-29T00:13:23.081Z,16.08
2022-10-29T00:15:49.873Z,15.48
2022-10-29T00:18:16.632Z,16.92
2022-10-29T00:20:43.202Z,13.70
2022-10-29T00:23:09.799Z,20.58
2022-10-29T00:25:36.525Z,20.58
2022-10-29T00:28:03.201Z,16.27
2022-10-29T00:30:30.954Z,17.63
2022-10-29T00:32:57.698Z,17.30
2022-10-29T00:35:24.648Z,22.25
2022-10-29T00:37:51.163Z,16.75
2022-10-29T00:40:18.730Z,20.25
2022-10-29T00:42:45.356Z,20.85
2022-10-29T00:45:19.328Z,15.32
2022-10-29T00:47:50.876Z,17.98
2022-10-29T00:50:19.436Z,15.50
2022-10-29T00:52:49.215Z,16.33
2022-10-29T00:55:16.511Z,14.85
2022-10-29T00:57:50.004Z,17.20
2022-10-29T01:00:18.074Z,17.25
2022-10-29T01:02:45.861Z,17.70
2022-10-29T01:05:17.746Z,13.95
2022-10-29T01:07:44.375Z,17.65
2022-10-29T01:10:12.085Z,14.02
2022-10-29T01:16:05.355Z,17.63
2022-10-29T01:18:37.107Z,21.25
2022-10-29T01:21:28.129Z,17.70
2022-10-29T01:24:15.970Z,16.27
2022-10-29T01:27:17.117Z,13.82
2022-10-29T01:30:03.696Z,14.60
2022-10-29T01:32:48.552Z,14.43
2022-10-29T01:35:18.260Z,24.42
2022-10-29T01:38:03.679Z,12.73
2022-10-29T01:41:02.196Z,18.17
2022-10-29T01:43:36.586Z,20.60
2022-10-29T01:46:21.061Z,16.93
2022-10-29T01:48:51.301Z,14.40
2022-10-29T01:51:22.502Z,18.02
2022-10-29T01:53:49.773Z,14.18
2022-10-29T01:56:16.420Z,14.75
2022-10-29T01:58:47.683Z,12.80
2022-10-29T02:01:33.218Z,16.42
2022-10-29T02:06:43.242Z,16.30
2022-10-29T02:09:23.644Z,23.00
2022-10-29T02:12:09.594Z,18.88
2022-10-29T02:14:43.807Z,15.77
2022-10-29T02:17:10.357Z,15.55
2022-10-29T02:19:37.445Z,15.95
2022-10-29T02:22:04.035Z,16.23
2022-10-29T02:24:30.666Z,10.63
2022-10-29T02:26:57.222Z,16.88
2022-10-29T02:29:23.949Z,14.57
2022-10-29T02:31:50.482Z,14.25
2022-10-29T02:34:17.099Z,14.70
2022-10-29T02:36:43.733Z,13.18
2022-10-29T02:39:10.383Z,15.52
2022-10-29T02:41:37.000Z,15.55
2022-10-29T02:44:03.694Z,16.42
2022-10-29T02:46:30.495Z,13.57
2022-10-29T02:48:57.151Z,19.58
2022-10-29T02:51:23.711Z,17.10
2022-10-29T02:53:50.246Z,17.00
2022-10-29T02:56:16.796Z,12.73
2022-10-29T02:58:43.456Z,16.05
2022-10-29T03:01:10.180Z,13.02
2022-10-29T03:03:36.930Z,14.60
2022-10-29T03:06:03.819Z,13.07
2022-10-29T03:08:30.349Z,16.00
2022-10-29T03:10:57.347Z,14.15
2022-10-29T03:13:23.955Z,13.95
2022-10-29T03:15:50.642Z,15.45
2022-10-29T03:18:17.216Z,10.75
2022-10-29T03:20:45.370Z,15.05
2022-10-29T03:23:11.922Z,13.65
2022-10-29T03:25:38.454Z,22.20
2022-10-29T03:28:05.283Z,13.27
2022-10-29T03:30:31.888Z,15.60
2022-10-29T03:32:58.966Z,15.45
2022-10-29T03:35:25.706Z,13.43
2022-10-29T03:37:52.914Z,15.77
2022-10-29T03:40:19.889Z,18.52
2022-10-29T03:42:46.419Z,15.43
2022-10-29T03:45:13.390Z,12.90
2022-10-29T03:47:40.049Z,17.13
2022-10-29T03:50:07.217Z,10.93
2022-10-29T03:52:33.838Z,17.02
2022-10-29T03:55:00.362Z,11.50
2022-10-29T03:57:26.909Z,16.90
2022-10-29T03:59:53.516Z,19.65
2022-10-29T04:02:20.316Z,17.92
2022-10-29T04:04:47.016Z,16.15
2022-10-29T04:07:13.589Z,15.55
2022-10-29T04:09:40.144Z,13.70
2022-10-29T04:12:07.567Z,15.38
2022-10-29T04:14:34.247Z,14.60
2022-10-29T04:17:00.848Z,17.17
2022-10-29T04:19:27.550Z,11.93
2022-10-29T04:30:15.043Z,16.20
2022-10-29T04:32:41.576Z,18.80
2022-10-29T04:35:08.427Z,20.52
2022-10-29T04:37:34.949Z,16.38
2022-10-29T04:40:01.876Z,12.00
2022-10-29T04:42:28.430Z,15.73
2022-10-29T04:44:54.966Z,15.63
2022-10-29T04:47:21.701Z,14.65
2022-10-29T04:49:48.216Z,14.38
2022-10-29T04:52:14.722Z,15.80
2022-10-29T04:54:41.268Z,16.35
2022-10-29T04:57:07.790Z,15.13
2022-10-29T04:59:34.538Z,12.00
2022-10-29T05:02:01.071Z,15.68
2022-10-29T05:04:29.385Z,16.38
2022-10-29T05:06:56.185Z,16.35
2022-10-29T05:09:22.733Z,16.65
2022-10-29T05:11:49.294Z,18.77
2022-10-29T05:14:15.962Z,15.50
2022-10-29T05:16:42.734Z,15.40
2022-10-29T05:19:09.360Z,16.75
2022-10-29T05:21:35.992Z,19.33
2022-10-29T05:24:02.527Z,17.48
2022-10-29T05:26:32.066Z,18.23
2022-10-29T05:28:58.986Z,14.48
2022-10-29T05:31:25.724Z,20.60
2022-10-29T05:33:55.477Z,16.10
2022-10-29T05:36:22.774Z,17.55
2022-10-29T05:38:49.522Z,17.83
2022-10-29T05:41:16.305Z,13.30
2022-10-29T05:43:42.983Z,13.48
2022-10-29T05:46:09.519Z,13.38
2022-10-29T05:48:36.083Z,19.40
2022-10-29T05:51:02.702Z,17.60
2022-10-29T05:53:29.242Z,16.48
2022-10-29T05:55:55.895Z,12.85
2022-10-29T05:58:22.443Z,15.68
2022-10-29T06:00:50.463Z,18.02
2022-10-29T06:03:19.450Z,16.98
2022-10-29T06:05:50.165Z,15.65
2022-10-29T06:08:17.590Z,15.00
2022-10-29T06:10:44.209Z,22.02
2022-10-29T06:13:12.728Z,14.60
2022-10-29T06:15:39.462Z,17.00
2022-10-29T06:18:06.564Z,18.77
2022-10-29T06:20:33.199Z,22.95
2022-10-29T06:23:00.032Z,18.35
2022-10-29T06:25:27.714Z,13.52
2022-10-29T06:27:59.458Z,16.05
2022-10-29T06:30:26.247Z,16.27
2022-10-29T06:32:53.076Z,19.50
2022-10-29T06:35:19.916Z,13.55
2022-10-29T06:37:46.541Z,17.00
2022-10-29T06:40:13.260Z,19.58
2022-10-29T06:42:39.920Z,15.13
2022-10-29T06:45:07.143Z,20.75
2022-10-29T06:47:42.892Z,18.40
2022-10-29T06:50:11.520Z,20.60
2022-10-29T06:52:38.500Z,19.60
2022-10-29T06:55:06.419Z,17.63
2022-10-29T06:57:33.223Z,16.35
2022-10-29T07:00:05.300Z,14.02
2022-10-29T07:05:01.686Z,16.63
2022-10-29T07:07:29.048Z,20.33
2022-10-29T07:09:55.729Z,19.77
2022-10-29T07:12:22.281Z,18.17
2022-10-29T07:14:48.879Z,20.30
2022-10-29T07:17:15.549Z,17.00
2022-10-29T07:19:42.102Z,18.92
2022-10-29T07:22:08.643Z,15.25
2022-10-29T07:24:35.281Z,16.02
2022-10-29T07:27:02.033Z,17.08
2022-10-29T07:29:28.657Z,13.13
2022-10-29T07:31:55.360Z,17.80
2022-10-29T07:34:21.963Z,21.20
2022-10-29T07:36:48.583Z,17.75
2022-10-29T07:39:15.223Z,20.27
2022-10-29T07:41:41.852Z,23.25
2022-10-29T07:44:08.562Z,18.55
2022-10-29T07:46:35.134Z,16.98
2022-10-29T07:49:01.822Z,19.67
2022-10-29T07:51:28.463Z,19.58
2022-10-29T07:53:55.056Z,18.42
2022-10-29T07:56:21.712Z,18.10
2022-10-29T07:58:48.321Z,20.80
2022-10-29T08:01:14.949Z,18.70
2022-10-29T08:03:42.263Z,18.23
2022-10-29T08:06:09.193Z,20.80
2022-10-29T08:08:35.978Z,19.35
2022-10-29T08:11:04.259Z,15.77
2022-10-29T08:13:31.290Z,14.00
2022-10-29T08:15:57.991Z,19.35
2022-10-29T08:18:24.763Z,13.48
2022-10-29T08:20:52.684Z,20.23
2022-10-29T08:23:19.215Z,19.02
2022-10-29T08:25:46.006Z,16.15
2022-10-29T08:28:15.027Z,22.33
2022-10-29T08:30:43.853Z,15.18
2022-10-29T08:33:11.003Z,21.67
2022-10-29T08:35:37.590Z,18.58
2022-10-29T08:38:04.359Z,14.80
2022-10-29T08:40:49.791Z,18.83
2022-10-29T08:43:34.277Z,19.95
2022-10-29T08:46:01.070Z,16.20
2022-10-29T08:48:33.482Z,16.00
2022-10-29T08:51:31.841Z,16.75
2022-10-29T08:56:57.523Z,16.10
2022-10-29T08:59:27.017Z,15.48
2022-10-29T09:01:54.021Z,23.92
2022-10-29T09:04:25.317Z,25.38
2022-10-29T09:07:10.630Z,14.90
2022-10-29T09:09:47.066Z,17.70
2022-10-29T09:12:16.319Z,21.55
2022-10-29T09:15:05.990Z,13.20
2022-10-29T09:17:39.505Z,17.83
2022-10-29T09:20:45.304Z,16.88
2022-10-29T09:23:50.038Z,21.75
2022-10-29T09:26:22.331Z,16.17
2022-10-29T09:29:13.836Z,19.15
2022-10-29T09:31:53.792Z,18.23
2022-10-29T09:34:43.527Z,17.98
2022-10-29T09:37:39.547Z,15.60
2022-10-29T09:42:41.595Z,18.05
2022-10-29T09:45:13.302Z,17.88
2022-10-29T09:47:52.286Z,22.45
2022-10-29T09:50:47.224Z,13.63
2022-10-29T09:53:14.075Z,15.27
2022-10-29T09:55:45.875Z,18.98
2022-10-29T09:58:23.411Z,17.15
2022-10-29T10:00:51.288Z,17.50
2022-10-29T10:03:23.292Z,18.08
2022-10-29T10:05:59.079Z,15.13
2022-10-29T10:08:25.959Z,22.95
2022-10-29T10:10:59.065Z,23.75
2022-10-29T10:13:33.412Z,19.05
2022-10-29T10:16:02.843Z,18.17
2022-10-29T10:18:33.857Z,13.63
2022-10-29T10:21:11.058Z,20.00
2022-10-29T10:23:43.899Z,22.73
2022-10-29T10:26:29.298Z,18.92
2022-10-29T10:29:11.928Z,19.17
2022-10-29T10:31:43.751Z,17.85
2022-10-29T10:34:15.292Z,17.35
2022-10-29T10:36:45.875Z,18.13
2022-10-29T10:39:34.713Z,16.83
2022-10-29T10:42:05.310Z,21.75
2022-10-29T10:44:32.588Z,19.80
2022-10-29T10:47:06.325Z,21.10
2022-10-29T10:49:36.849Z,17.92
2022-10-29T10:52:06.990Z,16.13
2022-10-29T10:54:39.688Z,15.88
2022-10-29T10:57:21.291Z,18.52
2022-10-29T11:00:03.100Z,23.30
2022-10-29T11:02:44.939Z,18.83
2022-10-29T11:05:19.227Z,21.52
2022-10-29T11:07:57.142Z,19.67
2022-10-29T11:10:34.063Z,17.95
2022-10-29T11:13:06.066Z,16.42
2022-10-29T11:15:55.829Z,16.05
2022-10-29T11:18:30.460Z,20.33
2022-10-29T11:21:14.957Z,14.30
2022-10-29T11:24:02.419Z,17.25
2022-10-29T11:26:37.844Z,17.73
2022-10-29T11:29:32.362Z,16.33
2022-10-29T11:32:08.546Z,20.00
2022-10-29T11:34:50.082Z,23.75
2022-10-29T11:37:41.356Z,22.98
2022-10-29T11:40:24.198Z,13.10
2022-10-29T11:42:50.965Z,15.07
2022-10-29T11:45:30.843Z,16.52
2022-10-29T11:51:05.296Z,15.90
2022-10-29T11:53:55.666Z,17.80
2022-10-29T11:56:27.098Z,12.73
2022-10-29T11:59:24.065Z,15.80
2022-10-29T12:02:05.068Z,19.85
2022-10-29T12:05:24.039Z,17.15
2022-10-29T12:08:12.295Z,19.08
2022-10-29T12:10:39.358Z,18.90
2022-10-29T12:13:25.775Z,21.27
2022-10-29T12:16:16.456Z,14.30
2022-10-29T12:19:28.254Z,24.15
2022-10-29T12:22:23.426Z,17.00
2022-10-29T12:25:17.909Z,16.02
2022-10-29T12:27:47.515Z,20.73
2022-10-29T12:30:17.859Z,15.18
2022-10-29T12:32:56.677Z,19.70
2022-10-29T12:35:43.699Z,16.05
2022-10-29T12:38:38.429Z,17.15
2022-10-29T12:41:13.328Z,15.65
2022-10-29T12:43:40.832Z,19.80
2022-10-29T12:46:38.261Z,17.92
2022-10-29T12:49:11.481Z,22.35
2022-10-29T12:51:53.520Z,14.90
2022-10-29T12:54:43.345Z,13.10
2022-10-29T12:57:12.825Z,19.17
2022-10-29T12:59:41.032Z,13.10
2022-10-29T13:02:37.191Z,17.42
2022-10-29T13:05:06.937Z,16.52
2022-10-29T13:07:34.367Z,15.85
2022-10-29T13:10:23.245Z,14.50
2022-10-29T13:12:58.661Z,17.02
2022-10-29T13:15:38.519Z,17.30
2022-10-29T13:18:21.658Z,19.33
2022-10-29T13:20:50.796Z,15.90
2022-10-29T13:23:23.439Z,19.48
2022-10-29T13:25:51.141Z,18.98
2022-10-29T13:28:17.751Z,18.85
2022-10-29T13:30:46.643Z,17.70
2022-10-29T13:33:36.526Z,16.77
2022-10-29T13:36:06.067Z,16.83
2022-10-29T13:39:04.226Z,16.30
2022-10-29T13:41:45.250Z,18.70
2022-10-29T13:44:22.852Z,15.32
2022-10-29T13:47:02.291Z,16.73
2022-10-29T13:49:54.391Z,20.35
2022-10-29T13:52:24.002Z,17.95
2022-10-29T13:55:08.571Z,22.13
2022-10-29T13:57:52.611Z,22.85
2022-10-29T14:00:20.781Z,20.20
2022-10-29T14:02:57.310Z,25.48
2022-10-29T14:05:31.729Z,23.40
2022-10-29T14:08:20.405Z,18.63
2022-10-29T14:10:53.311Z,19.83
2022-10-29T14:13:23.562Z,26.65
2022-10-29T14:16:06.627Z,21.88
2022-10-29T14:18:40.612Z,14.20
2022-10-29T14:21:21.521Z,21.98
2022-10-29T14:23:58.772Z,21.27
2022-10-29T14:26:27.155Z,19.88
2022-10-29T14:28:53.793Z,21.17
2022-10-29T14:31:25.420Z,19.33
2022-10-29T14:33:58.922Z,17.02
2022-10-29T14:36:35.185Z,15.07
2022-10-29T14:39:04.488Z,14.55
2022-10-29T14:41:32.146Z,20.50
2022-10-29T14:44:34.257Z,16.35
2022-10-29T14:47:17.919Z,18.30
2022-10-29T14:49:47.502Z,14.88
2022-10-29T14:52:42.078Z,15.80
2022-10-29T14:55:29.814Z,16.95
2022-10-29T14:58:02.242Z,18.63
2022-10-29T15:00:31.658Z,20.38
2022-10-29T15:02:58.951Z,18.33
2022-10-29T15:05:30.044Z,20.98
2022-10-29T15:08:11.634Z,20.42
2022-10-29T15:10:46.036Z,20.65
2022-10-29T15:13:26.806Z,17.50
2022-10-29T15:16:01.471Z,18.73
2022-10-29T15:18:29.505Z,22.33
2022-10-29T15:20:57.055Z,18.05
2022-10-29T15:23:35.577Z,14.60
2022-10-29T15:26:04.895Z,17.35
2022-10-29T15:28:40.639Z,25.20
2022-10-29T15:31:20.465Z,16.73
2022-10-29T15:33:49.998Z,16.08
2022-10-29T15:36:16.601Z,18.92
2022-10-29T15:38:52.477Z,16.75
2022-10-29T15:41:19.174Z,23.23
2022-10-29T15:43:54.759Z,18.15
2022-10-29T15:46:22.532Z,20.25
2022-10-29T15:48:49.172Z,18.25
2022-10-29T15:51:16.069Z,17.45
2022-10-29T15:53:42.655Z,20.02
2022-10-29T15:56:13.720Z,23.70
2022-10-29T15:58:41.180Z,22.55
2022-10-29T16:01:08.527Z,20.60
2022-10-29T16:03:39.340Z,25.30
2022-10-29T16:06:07.432Z,20.73
2022-10-29T16:08:41.778Z,24.58
2022-10-29T16:11:15.125Z,22.13
2022-10-29T16:13:41.938Z,25.65
2022-10-29T16:16:30.065Z,20.75
2022-10-29T16:18:56.656Z,25.98
2022-10-29T16:21:25.549Z,22.25
2022-10-29T16:23:52.388Z,28.70
2022-10-29T16:26:22.199Z,27.20
2022-10-29T16:28:48.894Z,28.20
2022-10-29T16:31:20.307Z,24.70
2022-10-29T16:33:52.850Z,22.95
2022-10-29T16:36:19.785Z,27.08
2022-10-29T16:38:46.416Z,32.97
2022-10-29T16:41:14.918Z,27.45
2022-10-29T16:43:41.953Z,21.23
2022-10-29T16:46:09.288Z,27.55
2022-10-29T16:48:36.232Z,19.27
2022-10-29T16:51:02.954Z,23.20
2022-10-29T16:53:29.535Z,27.52
2022-10-29T16:55:56.278Z,24.17
2022-10-29T16:58:23.039Z,23.33
2022-10-29T17:00:49.821Z,22.40
2022-10-29T17:03:18.156Z,22.75
2022-10-29T17:05:46.043Z,18.10
2022-10-29T17:08:12.880Z,27.67
2022-10-29T17:10:39.806Z,19.20
2022-10-29T17:13:11.606Z,24.42
2022-10-29T17:15:41.729Z,25.45
2022-10-29T17:18:08.464Z,24.23
2022-10-29T17:20:34.982Z,25.60
2022-10-29T17:23:01.645Z,29.13
2022-10-29T17:25:28.250Z,26.33
2022-10-29T17:27:55.153Z,24.52
2022-10-29T17:30:22.028Z,21.88
2022-10-29T17:32:48.709Z,25.10
2022-10-29T17:35:15.387Z,29.58
2022-10-29T17:37:42.071Z,28.30
2022-10-29T17:40:09.452Z,27.90
2022-10-29T17:42:36.017Z,30.02
2022-10-29T17:45:02.927Z,24.05
2022-10-29T17:47:30.275Z,25.30
2022-10-29T17:49:57.085Z,28.35
2022-10-29T17:52:23.628Z,27.02
2022-10-29T17:54:50.162Z,29.00
2022-10-29T17:57:16.737Z,23.05
2022-10-29T17:59:43.355Z,24.58
2022-10-29T18:02:11.552Z,28.65
2022-10-29T18:04:38.469Z,25.50
2022-10-29T18:07:05.136Z,23.85
2022-10-29T18:09:31.736Z,24.17
2022-10-29T18:11:58.453Z,57.55
2022-10-29T18:14:25.037Z,64.20
2022-10-29T18:16:51.669Z,44.63
2022-10-29T18:19:18.325Z,42.90
2022-10-29T18:21:45.150Z,35.55
2022-10-29T18:24:11.968Z,31.85
2022-10-29T18:26:38.644Z,35.33
2022-10-29T18:29:08.306Z,30.25
2022-10-29T18:31:36.197Z,32.30
2022-10-29T18:34:05.708Z,30.35
2022-10-29T18:36:33.182Z,31.60
2022-10-29T18:38:59.985Z,24.63
2022-10-29T18:41:26.707Z,24.35
2022-10-29T18:43:54.410Z,24.17
2022-10-29T18:46:21.842Z,27.67
2022-10-29T18:48:49.543Z,29.23
2022-10-29T18:51:17.357Z,30.85
2022-10-29T18:53:43.963Z,25.83
2022-10-29T18:56:12.879Z,29.05
2022-10-29T18:58:40.221Z,28.05
2022-10-29T19:01:12.864Z,24.85
2022-10-29T19:03:40.554Z,31.45
2022-10-29T19:06:10.202Z,34.50
2022-10-29T19:08:38.034Z,26.75
2022-10-29T19:11:07.784Z,28.60
2022-10-29T19:13:35.029Z,28.60
2022-10-29T19:16:03.626Z,30.85
2022-10-29T19:18:31.197Z,24.27
2022-10-29T19:21:09.881Z,22.08
2022-10-29T19:23:37.420Z,25.08
2022-10-29T19:26:15.837Z,24.85
2022-10-29T19:28:43.857Z,30.67
2022-10-29T19:31:13.426Z,24.63
2022-10-29T19:33:40.341Z,28.08
2022-10-29T19:36:08.779Z,22.67
2022-10-29T19:38:35.740Z,22.90
2022-10-29T19:41:02.355Z,20.60
2022-10-29T19:43:29.636Z,24.65
2022-10-29T19:45:56.891Z,27.45
2022-10-29T19:48:23.870Z,21.50
2022-10-29T19:50:56.005Z,21.30
2022-10-29T19:53:26.580Z,26.90
2022-10-29T19:55:53.788Z,26.17
2022-10-29T19:58:23.365Z,25.58
2022-10-29T20:00:50.262Z,22.00
2022-10-29T20:03:18.197Z,25.88
2022-10-29T20:05:45.772Z,23.05
2022-10-29T20:08:15.847Z,20.42
2022-10-29T20:10:43.463Z,24.17
2022-10-29T20:13:10.064Z,24.05
2022-10-29T20:15:39.502Z,19.27
2022-10-29T20:18:06.403Z,28.23
2022-10-29T20:20:33.107Z,31.15
2022-10-29T20:23:00.372Z,20.75
2022-10-29T20:25:27.716Z,26.33
2022-10-29T20:27:54.353Z,23.05
2022-10-29T20:30:21.204Z,21.63
2022-10-29T20:32:48.994Z,23.33
2022-10-29T20:35:16.571Z,22.08
2022-10-29T20:37:43.249Z,22.23
2022-10-29T20:40:10.673Z,24.20
2022-10-29T20:42:37.389Z,23.45
2022-10-29T20:45:04.316Z,20.80
2022-10-29T20:47:30.944Z,19.75
2022-10-29T20:49:57.641Z,19.27
2022-10-29T20:52:24.337Z,26.02
2022-10-29T20:54:50.923Z,25.33
2022-10-29T20:57:17.443Z,24.65
2022-10-29T20:59:44.023Z,24.52
2022-10-29T21:02:11.343Z,23.33
2022-10-29T21:04:38.745Z,22.42
2022-10-29T21:07:05.281Z,26.00
2022-10-29T21:09:31.776Z,23.13
2022-10-29T21:11:58.311Z,21.30
2022-10-29T21:14:26.685Z,21.42
2022-10-29T21:16:53.372Z,23.25
2022-10-29T21:19:20.125Z,23.75
2022-10-29T21:21:46.796Z,21.65
2022-10-29T21:24:13.333Z,25.90
2022-10-29T21:26:39.848Z,20.77
2022-10-29T21:29:06.411Z,17.73
2022-10-29T21:31:33.381Z,21.83
2022-10-29T21:34:00.220Z,19.05
2022-10-29T21:36:26.727Z,24.70
2022-10-29T21:38:53.247Z,21.20
2022-10-29T21:41:19.798Z,19.00
2022-10-29T21:43:46.288Z,20.63
2022-10-29T21:46:12.848Z,21.02
2022-10-29T21:48:39.434Z,24.23
2022-10-29T21:51:13.997Z,31.40
2022-10-29T21:53:40.953Z,29.95
2022-10-29T21:56:11.272Z,25.77
2022-10-29T21:58:37.845Z,28.35
2022-10-29T22:01:14.644Z,24.80
2022-10-29T22:03:42.599Z,24.08
2022-10-29T22:06:14.929Z,21.58
2022-10-29T22:08:41.606Z,24.58
2022-10-29T22:11:08.445Z,20.10
2022-10-29T22:13:35.662Z,18.00
2022-10-29T22:16:03.609Z,23.40
2022-10-29T22:18:30.464Z,20.17
2022-10-29T22:21:07.512Z,22.15
2022-10-29T22:23:34.643Z,25.02
2022-10-29T22:26:01.640Z,18.33
2022-10-29T22:28:28.278Z,23.27
2022-10-29T22:31:02.821Z,18.80
2022-10-29T22:33:29.794Z,18.63
2022-10-29T22:35:56.445Z,19.27
2022-10-29T22:38:23.032Z,28.25
2022-10-29T22:40:49.596Z,19.55
2022-10-29T22:43:16.355Z,20.40
2022-10-29T22:45:45.232Z,20.27
2022-10-29T22:48:11.876Z,21.02
2022-10-29T22:50:38.393Z,23.55
2022-10-29T22:53:04.940Z,22.20
2022-10-29T22:55:31.646Z,22.45
2022-10-29T22:57:58.152Z,21.83
2022-10-29T23:00:24.647Z,24.65
2022-10-29T23:02:51.259Z,19.85
2022-10-29T23:05:17.777Z,24.77
2022-10-29T23:07:44.283Z,24.05
2022-10-29T23:10:10.864Z,27.63
2022-10-29T23:12:38.109Z,21.42
2022-10-29T23:15:05.848Z,28.13
2022-10-29T23:17:32.570Z,25.85
2022-10-29T23:19:59.217Z,20.10
2022-10-29T23:22:27.612Z,24.27
2022-10-29T23:24:54.380Z,20.27
2022-10-29T23:27:20.962Z,21.67
2022-10-29T23:29:47.467Z,19.13
2022-10-29T23:32:14.036Z,18.67
2022-10-29T23:34:40.605Z,21.00
2022-10-29T23:37:09.811Z,18.60
2022-10-29T23:39:36.978Z,23.83
2022-10-29T23:42:03.650Z,18.35
2022-10-29T23:44:30.182Z,21.63
2022-10-29T23:46:56.669Z,23.75
2022-10-29T23:49:23.301Z,22.02
2022-10-29T23:51:49.803Z,21.13
2022-10-29T23:54:16.301Z,20.60
2022-10-29T23:56:42.850Z,22.70
2022-10-29T23:59:09.347Z,23.52
